Time;durP1;ratioP1;P1;durP2;ratioP2;P2;SDS_P1;SDS_P2;PMS_P1;PMS_P2;Temp;Humidity;BMP_temperature;BMP_pressure;BME280_temperature;BME280_humidity;BME280_pressure;Samples;Min_cycle;Max_cycle;Signal;HPM_P1;HPM_P2
2023/02/13 00:00:37;;;;;;;53.40;36.30;;;10.00;1.00;;;;;;5030263;28;20033;-51
2023/02/13 00:03:03;;;;;;;54.57;35.97;;;10.10;1.00;;;;;;5031145;28;20152;-52
2023/02/13 00:05:29;;;;;;;56.90;38.17;;;9.90;1.00;;;;;;5030064;28;20046;-52
2023/02/13 00:07:55;;;;;;;52.67;37.40;;;9.90;1.00;;;;;;5026044;28;20026;-50
2023/02/13 00:10:20;;;;;;;54.37;37.67;;;9.90;1.00;;;;;;5024682;28;20467;-52
2023/02/13 00:12:46;;;;;;;54.77;36.80;;;9.90;1.00;;;;;;5040878;28;20041;-50
2023/02/13 00:15:11;;;;;;;53.90;37.27;;;10.00;1.00;;;;;;5017757;28;20038;-49
2023/02/13 00:17:37;;;;;;;58.07;39.40;;;9.90;1.00;;;;;;5029324;28;20183;-53
2023/02/13 00:20:04;;;;;;;54.50;37.73;;;10.00;1.00;;;;;;5034585;28;20017;-54
2023/02/13 00:22:33;;;;;;;52.80;36.43;;;10.00;1.00;;;;;;5035059;28;20049;-50
2023/02/13 00:24:59;;;;;;;54.40;37.27;;;9.90;1.00;;;;;;5033444;28;20387;-50
2023/02/13 00:27:24;;;;;;;54.60;37.97;;;10.00;1.00;;;;;;5035020;28;20025;-51
2023/02/13 00:29:50;;;;;;;54.23;36.07;;;10.00;1.00;;;;;;5034816;28;20030;-51
2023/02/13 00:32:15;;;;;;;53.87;36.70;;;9.90;1.00;;;;;;5034637;28;20045;-49
2023/02/13 00:34:42;;;;;;;55.30;36.73;;;9.90;1.00;;;;;;5034586;28;20112;-50
2023/02/13 00:37:08;;;;;;;56.33;39.23;;;9.90;1.00;;;;;;5034434;28;20033;-52
2023/02/13 00:39:34;;;;;;;51.50;37.30;;;9.90;1.00;;;;;;5034517;28;20087;-48
2023/02/13 00:41:59;;;;;;;54.47;36.77;;;9.90;1.00;;;;;;5033440;28;20025;-50
2023/02/13 00:44:25;;;;;;;51.87;37.10;;;9.90;1.00;;;;;;5034448;28;20433;-48
2023/02/13 00:46:51;;;;;;;54.27;37.90;;;9.90;1.00;;;;;;5033162;28;20506;-51
2023/02/13 00:49:16;;;;;;;54.43;37.70;;;9.80;1.00;;;;;;5043286;28;20119;-51
2023/02/13 00:51:42;;;;;;;55.83;37.40;;;9.80;1.00;;;;;;5039293;28;20036;-50
2023/02/13 00:54:07;;;;;;;49.83;35.03;;;9.90;1.00;;;;;;5032823;28;20407;-50
2023/02/13 00:56:33;;;;;;;52.17;37.90;;;9.80;1.00;;;;;;5034217;28;20064;-50
2023/02/13 00:58:58;;;;;;;52.17;34.90;;;9.90;1.00;;;;;;5034013;28;20250;-47
2023/02/13 01:01:24;;;;;;;56.20;38.73;;;9.80;1.00;;;;;;5034172;28;20045;-52
2023/02/13 01:03:50;;;;;;;56.07;38.73;;;9.80;1.00;;;;;;5033903;28;20029;-49
2023/02/13 01:06:16;;;;;;;51.13;36.33;;;9.80;1.00;;;;;;5034120;28;20501;-52
2023/02/13 01:08:41;;;;;;;52.17;37.47;;;9.80;1.00;;;;;;5033778;28;20026;-48
2023/02/13 01:11:07;;;;;;;51.77;35.73;;;9.80;1.00;;;;;;5033977;28;20017;-49
2023/02/13 01:13:33;;;;;;;52.80;36.43;;;9.80;1.00;;;;;;5033855;28;20045;-48
2023/02/13 01:15:59;;;;;;;54.80;36.90;;;9.80;1.00;;;;;;5034081;28;20412;-52
2023/02/13 01:18:24;;;;;;;52.63;36.63;;;9.80;1.00;;;;;;5034135;28;20498;-47
2023/02/13 01:21:03;;;;;;;53.77;37.20;;;9.80;1.00;;;;;;5033663;28;20026;-48
2023/02/13 01:23:34;;;;;;;54.67;36.00;;;9.80;1.00;;;;;;5033981;28;20041;-49
2023/02/13 01:26:00;;;;;;;55.23;36.73;;;9.80;1.00;;;;;;5033547;28;20043;-52
2023/02/13 01:28:25;;;;;;;53.53;36.47;;;9.70;1.00;;;;;;5033557;28;20127;-51
2023/02/13 01:30:53;;;;;;;49.93;34.40;;;9.80;1.00;;;;;;5032951;28;20105;-51
2023/02/13 01:33:18;;;;;;;58.37;36.77;;;9.70;1.00;;;;;;5033659;28;20340;-50
2023/02/13 01:35:44;;;;;;;48.93;35.13;;;9.70;1.00;;;;;;5029582;28;20022;-49
2023/02/13 01:38:09;;;;;;;59.27;37.80;;;9.80;1.00;;;;;;5033317;28;20035;-48
2023/02/13 01:40:35;;;;;;;53.00;37.57;;;9.70;1.00;;;;;;5031929;28;20029;-47
2023/02/13 01:43:01;;;;;;;54.60;36.90;;;9.70;1.00;;;;;;5033414;28;20097;-48
2023/02/13 01:45:29;;;;;;;56.30;37.97;;;9.70;1.00;;;;;;5033775;28;20355;-47
2023/02/13 01:48:09;;;;;;;53.03;36.17;;;9.80;1.00;;;;;;5033732;28;20040;-48
2023/02/13 01:50:53;;;;;;;50.03;34.70;;;9.80;1.00;;;;;;5047608;28;20067;-50
2023/02/13 01:53:28;;;;;;;51.50;36.00;;;9.70;1.00;;;;;;5033249;28;20099;-50
2023/02/13 01:55:59;;;;;;;46.13;33.23;;;9.60;1.00;;;;;;5019462;28;20045;-47
2023/02/13 01:58:30;;;;;;;50.53;34.90;;;9.70;1.00;;;;;;5033361;28;20029;-48
2023/02/13 02:00:57;;;;;;;50.97;34.10;;;9.70;1.00;;;;;;5033589;28;20414;-49
2023/02/13 02:03:32;;;;;;;49.40;34.23;;;9.70;1.00;;;;;;5033382;28;20124;-47
2023/02/13 02:05:59;;;;;;;50.07;34.60;;;9.70;1.00;;;;;;5032809;28;20048;-51
2023/02/13 02:08:25;;;;;;;50.37;34.83;;;9.60;1.00;;;;;;5033136;28;20029;-48
2023/02/13 02:10:52;;;;;;;48.53;32.90;;;9.60;1.00;;;;;;5033094;28;20083;-48
2023/02/13 02:13:19;;;;;;;50.73;34.03;;;9.60;1.00;;;;;;5033364;28;20563;-49
2023/02/13 02:15:47;;;;;;;48.83;34.07;;;9.60;1.00;;;;;;5032737;28;20034;-48
2023/02/13 02:18:22;;;;;;;49.13;33.77;;;9.60;1.00;;;;;;5031813;28;20076;-48
2023/02/13 02:20:56;;;;;;;49.72;32.78;;;9.60;1.00;;;;;;5030581;28;20087;-49
2023/02/13 02:23:42;;;;;;;48.50;33.13;;;9.60;1.00;;;;;;5031840;28;20033;-49
2023/02/13 02:26:20;;;;;;;58.73;34.63;;;9.50;1.00;;;;;;5031546;28;20071;-48
2023/02/13 02:29:06;;;;;;;46.47;32.63;;;9.50;1.00;;;;;;5031871;28;20087;-48
2023/02/13 02:31:59;;;;;;;49.13;31.47;;;9.60;1.00;;;;;;5018495;28;20032;-47
2023/02/13 02:34:30;;;;;;;45.07;31.83;;;9.60;1.00;;;;;;5030739;28;20076;-47
2023/02/13 02:37:04;;;;;;;49.37;31.73;;;9.60;1.00;;;;;;5030174;28;20340;-48
2023/02/13 02:39:51;;;;;;;49.90;32.53;;;9.60;1.00;;;;;;5031658;28;20014;-48
2023/02/13 02:42:38;;;;;;;49.53;32.53;;;9.60;1.00;;;;;;5028735;28;20036;-50
2023/02/13 02:45:31;;;;;;;49.77;33.60;;;9.60;1.00;;;;;;5031812;28;20527;-48
2023/02/13 02:51:02;;;;;;;54.03;36.73;;;9.60;1.00;;;;;;5031702;28;20028;-49
2023/02/13 02:53:52;;;;;;;55.97;35.77;;;9.50;1.00;;;;;;5031482;28;20036;-48
2023/02/13 02:56:25;;;;;;;55.10;37.00;;;9.50;1.00;;;;;;5021241;28;20041;-47
2023/02/13 03:07:18;;;;;;;50.17;34.27;;;9.40;1.00;;;;;;5031519;28;20079;-48
2023/02/13 03:15:29;;;;;;;53.20;36.07;;;9.40;1.00;;;;;;5031527;28;20505;-48
2023/02/13 03:24:46;;;;;;;53.17;36.97;;;9.30;1.00;;;;;;5022953;28;20052;-49
2023/02/13 03:30:05;;;;;;;56.90;36.87;;;9.30;1.00;;;;;;4998714;28;20034;-46
2023/02/13 03:30:34;;;;;;;51.40;37.57;;;9.30;1.00;;;;;;5030821;28;20030;-46
2023/02/13 03:33:41;;;;;;;49.57;35.17;;;9.20;1.00;;;;;;5030803;28;20098;-47
2023/02/13 03:39:43;;;;;;;53.30;36.07;;;9.20;1.00;;;;;;5021070;28;20083;-47
2023/02/13 03:42:21;;;;;;;50.40;36.23;;;9.20;1.00;;;;;;5030029;28;20037;-48
2023/02/13 03:47:57;;;;;;;52.63;36.50;;;9.20;1.00;;;;;;5031079;28;20355;-47
2023/02/13 03:50:26;;;;;;;53.67;36.97;;;9.10;1.00;;;;;;5031488;28;20632;-47
2023/02/13 03:53:00;;;;;;;55.60;36.87;;;9.00;1.00;;;;;;5031420;28;20040;-47
2023/02/13 04:01:15;;;;;;;51.13;36.43;;;9.00;1.00;;;;;;5036004;28;20091;-47
2023/02/13 04:03:57;;;;;;;51.07;36.27;;;9.00;1.00;;;;;;5035570;28;20025;-47
2023/02/13 04:06:35;;;;;;;49.03;35.10;;;9.00;1.00;;;;;;5035653;28;20060;-49
2023/02/13 04:09:01;;;;;;;52.57;35.73;;;9.00;1.00;;;;;;5035022;28;20025;-47
2023/02/13 04:11:50;;;;;;;52.10;37.07;;;8.90;1.00;;;;;;5035272;28;20026;-49
2023/02/13 04:14:44;;;;;;;51.23;36.83;;;8.90;1.00;;;;;;5035389;28;20060;-47
2023/02/13 04:17:42;;;;;;;51.20;36.87;;;8.80;1.00;;;;;;5035228;28;20463;-49
2023/02/13 04:20:08;;;;;;;51.40;35.67;;;8.90;1.00;;;;;;5024654;28;20025;-48
2023/02/13 04:22:40;;;;;;;50.27;35.60;;;8.90;1.00;;;;;;5032578;28;20014;-47
2023/02/13 04:25:06;;;;;;;50.27;35.63;;;8.90;1.00;;;;;;5035231;28;20021;-47
2023/02/13 04:27:32;;;;;;;49.13;35.13;;;8.90;1.00;;;;;;5035156;28;20045;-47
2023/02/13 04:29:57;;;;;;;49.33;34.53;;;8.90;1.00;;;;;;5034793;28;20475;-47
2023/02/13 04:32:23;;;;;;;51.30;36.57;;;8.90;1.00;;;;;;5035130;28;20144;-47
2023/02/13 04:34:48;;;;;;;52.13;36.60;;;8.80;1.00;;;;;;5034720;28;20018;-48
2023/02/13 04:37:14;;;;;;;51.13;36.20;;;8.80;1.00;;;;;;5034664;28;20053;-48
2023/02/13 04:39:39;;;;;;;54.70;37.87;;;8.80;1.00;;;;;;5034955;28;20024;-47
2023/02/13 04:42:05;;;;;;;48.80;36.23;;;8.80;1.00;;;;;;5048669;28;20013;-49
2023/02/13 04:44:31;;;;;;;52.40;36.40;;;8.80;1.00;;;;;;5034882;28;20083;-48
2023/02/13 04:46:56;;;;;;;50.90;35.97;;;8.80;1.00;;;;;;5034877;28;20188;-48
2023/02/13 04:49:22;;;;;;;52.40;37.17;;;8.80;1.00;;;;;;5034549;28;20479;-48
2023/02/13 04:51:47;;;;;;;50.93;34.40;;;8.70;1.00;;;;;;5034297;28;20125;-48
2023/02/13 04:54:13;;;;;;;51.63;35.40;;;8.80;1.00;;;;;;5034741;28;20030;-48
2023/02/13 04:56:38;;;;;;;51.10;36.73;;;8.70;1.00;;;;;;5034491;28;20512;-49
2023/02/13 04:59:04;;;;;;;48.07;34.80;;;8.70;1.00;;;;;;5034326;28;20035;-48
2023/02/13 05:01:30;;;;;;;51.60;36.00;;;8.70;1.00;;;;;;5034670;28;20398;-47
2023/02/13 05:03:55;;;;;;;49.50;35.80;;;8.70;1.00;;;;;;5034335;28;20080;-48
2023/02/13 05:06:21;;;;;;;53.40;35.27;;;8.70;1.00;;;;;;5033462;28;20036;-48
2023/02/13 05:08:48;;;;;;;50.20;34.77;;;8.70;1.00;;;;;;5033827;28;20046;-50
2023/02/13 05:11:13;;;;;;;52.60;35.37;;;8.70;1.00;;;;;;5032825;28;20190;-49
2023/02/13 05:13:39;;;;;;;52.87;36.43;;;8.70;1.00;;;;;;5034127;28;20398;-48
2023/02/13 05:16:05;;;;;;;51.77;36.23;;;8.60;1.00;;;;;;5033865;28;20067;-48
2023/02/13 05:18:30;;;;;;;54.33;37.27;;;8.70;1.00;;;;;;5034205;28;20482;-47
2023/02/13 05:23:40;;;;;;;41.83;27.40;;;8.60;1.00;;;;;;5033916;28;20112;-51
2023/02/13 05:26:06;;;;;;;49.20;36.40;;;8.60;1.00;;;;;;5027738;28;20534;-47
2023/02/13 05:31:16;;;;;;;51.87;36.23;;;8.60;1.00;;;;;;5033945;28;20525;-48
2023/02/13 05:33:41;;;;;;;53.13;35.90;;;8.60;1.00;;;;;;5033615;28;20041;-47
2023/02/13 05:36:07;;;;;;;49.63;34.67;;;8.60;1.00;;;;;;5033480;28;20076;-47
2023/02/13 05:38:33;;;;;;;51.37;35.23;;;8.60;1.00;;;;;;5033746;28;20033;-48
2023/02/13 05:41:01;;;;;;;49.77;35.57;;;8.60;1.00;;;;;;5042583;28;20459;-47
2023/02/13 05:43:28;;;;;;;54.30;35.73;;;8.60;1.00;;;;;;5037573;28;20128;-48
2023/02/13 05:46:01;;;;;;;52.47;36.60;;;8.60;1.00;;;;;;5033368;28;20025;-47
2023/02/13 05:48:27;;;;;;;50.37;34.00;;;8.60;1.00;;;;;;5033226;28;20064;-48
2023/02/13 05:50:53;;;;;;;51.43;34.73;;;8.60;1.00;;;;;;5028186;28;20072;-48
2023/02/13 05:53:18;;;;;;;47.23;34.77;;;8.50;1.00;;;;;;5025984;28;20110;-47
2023/02/13 05:55:44;;;;;;;47.33;34.93;;;8.50;1.00;;;;;;5033029;28;20024;-48
2023/02/13 05:58:10;;;;;;;52.23;35.13;;;8.50;1.00;;;;;;5033196;28;20021;-48
2023/02/13 06:00:36;;;;;;;53.33;36.53;;;8.60;1.00;;;;;;5029919;28;20110;-48
2023/02/13 06:03:01;;;;;;;51.40;34.13;;;8.50;1.00;;;;;;5033022;28;20084;-47
2023/02/13 06:05:27;;;;;;;51.17;35.20;;;8.50;1.00;;;;;;5032729;28;20051;-48
2023/02/13 06:07:53;;;;;;;53.03;34.60;;;8.40;1.00;;;;;;5032987;28;20051;-47
2023/02/13 06:10:18;;;;;;;54.50;34.53;;;8.50;1.00;;;;;;5033201;28;20033;-48
2023/02/13 06:12:44;;;;;;;51.33;35.17;;;8.40;1.00;;;;;;5032989;28;20072;-48
2023/02/13 06:15:09;;;;;;;51.53;36.07;;;8.40;1.00;;;;;;5032942;28;20074;-50
2023/02/13 06:17:35;;;;;;;50.17;34.83;;;8.50;1.00;;;;;;5032629;28;20116;-47
2023/02/13 06:20:01;;;;;;;50.40;34.07;;;8.50;1.00;;;;;;5032638;28;20032;-47
2023/02/13 06:22:26;;;;;;;51.90;34.90;;;8.40;1.00;;;;;;5032602;28;20029;-48
2023/02/13 06:24:52;;;;;;;49.07;34.57;;;8.50;1.00;;;;;;5032732;28;20048;-47
2023/02/13 06:27:17;;;;;;;51.73;35.03;;;8.50;1.00;;;;;;5032430;28;20037;-48
2023/02/13 06:29:43;;;;;;;50.53;35.17;;;8.60;1.00;;;;;;5032469;28;20383;-47
2023/02/13 06:32:08;;;;;;;51.17;36.90;;;8.50;1.00;;;;;;5032669;28;20036;-47
2023/02/13 06:34:34;;;;;;;53.73;36.13;;;8.50;1.00;;;;;;5032691;28;20379;-47
2023/02/13 06:37:00;;;;;;;52.40;35.30;;;8.60;1.00;;;;;;5032259;28;20074;-50
2023/02/13 06:39:25;;;;;;;55.37;35.53;;;8.50;1.00;;;;;;5032302;28;20033;-47
2023/02/13 06:41:51;;;;;;;51.47;35.90;;;8.50;1.00;;;;;;5046268;28;20029;-48
2023/02/13 06:44:16;;;;;;;56.50;37.67;;;8.50;1.00;;;;;;5032591;28;20030;-48
2023/02/13 06:46:42;;;;;;;51.50;37.27;;;8.50;1.00;;;;;;5031176;28;20462;-49
2023/02/13 06:49:08;;;;;;;51.83;36.70;;;8.60;1.00;;;;;;5032585;28;20167;-48
2023/02/13 06:51:34;;;;;;;50.67;35.53;;;8.50;1.00;;;;;;5030081;28;20032;-50
2023/02/13 06:54:00;;;;;;;50.97;36.33;;;8.50;1.00;;;;;;5030534;28;20029;-49
2023/02/13 06:56:25;;;;;;;52.50;33.33;;;8.50;1.00;;;;;;5032112;28;20430;-49
2023/02/13 06:58:51;;;;;;;55.17;35.47;;;8.60;1.00;;;;;;5030589;28;20025;-48
2023/02/13 07:01:16;;;;;;;50.30;35.73;;;8.70;1.00;;;;;;5032084;28;20352;-47
2023/02/13 07:03:42;;;;;;;53.10;34.70;;;8.70;1.00;;;;;;5032022;28;20033;-47
2023/02/13 07:06:08;;;;;;;49.67;34.13;;;8.60;1.00;;;;;;5030605;28;20095;-48
2023/02/13 07:08:33;;;;;;;50.77;35.97;;;8.70;1.00;;;;;;5030667;28;20030;-47
2023/02/13 07:10:59;;;;;;;56.07;34.17;;;8.80;1.00;;;;;;5032200;28;20101;-47
2023/02/13 07:13:25;;;;;;;52.87;36.13;;;8.80;1.00;;;;;;5030788;28;20479;-51
2023/02/13 07:15:50;;;;;;;56.40;37.93;;;8.80;1.00;;;;;;5032131;28;20030;-51
2023/02/13 07:18:16;;;;;;;56.37;37.03;;;8.80;1.00;;;;;;5032105;28;20543;-54
2023/02/13 07:20:41;;;;;;;62.17;37.43;;;8.80;1.00;;;;;;5032090;28;20386;-50
2023/02/13 07:23:07;;;;;;;58.63;38.23;;;8.80;1.00;;;;;;5030705;28;20160;-52
2023/02/13 07:25:33;;;;;;;55.90;37.30;;;8.80;1.00;;;;;;5032034;28;20029;-52
2023/02/13 07:28:04;;;;;;;54.27;37.50;;;8.80;1.00;;;;;;5031601;28;20419;-53
2023/02/13 07:30:31;;;;;;;55.37;38.47;;;8.90;1.00;;;;;;5031908;28;20151;-52
2023/02/13 07:33:03;;;;;;;59.90;37.47;;;8.80;1.00;;;;;;5031814;28;20089;-50
2023/02/13 07:35:30;;;;;;;57.27;36.13;;;8.80;1.00;;;;;;5031956;28;20029;-54
2023/02/13 07:37:55;;;;;;;58.67;36.60;;;8.90;1.00;;;;;;5031541;28;20025;-52
2023/02/13 07:40:21;;;;;;;58.23;39.00;;;8.90;1.00;;;;;;5035887;28;20027;-51
2023/02/13 07:42:47;;;;;;;54.63;37.20;;;8.90;1.00;;;;;;5041477;28;20030;-52
2023/02/13 07:45:14;;;;;;;53.33;36.70;;;8.90;1.00;;;;;;5031652;28;20037;-52
2023/02/13 07:47:40;;;;;;;56.20;38.37;;;8.90;1.00;;;;;;5031635;28;20045;-52
2023/02/13 07:50:07;;;;;;;57.17;38.53;;;8.90;1.00;;;;;;5031627;28;20100;-50
2023/02/13 07:52:33;;;;;;;56.50;39.10;;;9.00;1.00;;;;;;5031547;28;20131;-49
2023/02/13 07:54:58;;;;;;;61.77;38.63;;;9.00;1.00;;;;;;5031612;28;20026;-51
2023/02/13 07:57:24;;;;;;;60.87;40.83;;;9.00;1.00;;;;;;5031321;28;20030;-49
2023/02/13 07:59:49;;;;;;;57.57;40.40;;;9.00;1.00;;;;;;5031464;28;20031;-50
2023/02/13 08:02:15;;;;;;;61.40;39.93;;;9.00;1.00;;;;;;5031374;28;20025;-50
2023/02/13 08:04:47;;;;;;;62.30;41.97;;;9.00;1.00;;;;;;5031501;28;20567;-47
2023/02/13 08:07:14;;;;;;;71.20;44.63;;;9.10;1.00;;;;;;5031322;28;20028;-48
2023/02/13 08:12:24;;;;;;;65.63;42.63;;;8.90;1.00;;;;;;5031722;28;20510;-48
2023/02/13 08:14:50;;;;;;;60.00;42.50;;;8.90;1.00;;;;;;5030428;28;20026;-48
2023/02/13 08:17:15;;;;;;;63.30;41.77;;;8.90;1.00;;;;;;5031347;28;20048;-49
2023/02/13 08:19:41;;;;;;;63.10;41.87;;;8.90;1.00;;;;;;5017720;28;20079;-48
2023/02/13 08:22:06;;;;;;;61.47;42.37;;;8.90;1.00;;;;;;5031279;28;20033;-48
2023/02/13 08:24:57;;;;;;;61.47;42.53;;;9.00;1.00;;;;;;5029734;28;20053;-48
2023/02/13 08:27:23;;;;;;;62.83;43.10;;;9.00;1.00;;;;;;5026322;28;20022;-50
2023/02/13 08:29:53;;;;;;;64.47;41.87;;;8.90;1.00;;;;;;5031053;28;20495;-55
2023/02/13 08:32:18;;;;;;;66.00;43.27;;;8.90;1.00;;;;;;5031206;28;20029;-51
2023/02/13 08:34:44;;;;;;;73.27;44.70;;;8.90;1.00;;;;;;5031000;28;20365;-54
2023/02/13 08:37:09;;;;;;;65.43;44.10;;;9.00;1.00;;;;;;5030959;28;20022;-48
2023/02/13 08:39:35;;;;;;;64.07;45.10;;;9.00;1.00;;;;;;5031007;28;20476;-57
2023/02/13 08:42:01;;;;;;;66.17;43.90;;;9.00;1.00;;;;;;5046851;28;20108;-47
2023/02/13 08:44:26;;;;;;;62.50;43.37;;;8.90;1.00;;;;;;5034885;28;20353;-47
2023/02/13 08:46:52;;;;;;;66.43;43.63;;;8.70;1.00;;;;;;5034504;28;20036;-47
2023/02/13 08:49:17;;;;;;;67.17;44.07;;;8.60;1.00;;;;;;5034802;28;20090;-53
2023/02/13 08:51:43;;;;;;;65.27;45.00;;;8.80;1.00;;;;;;5023170;28;20026;-48
2023/02/13 08:54:09;;;;;;;71.27;46.93;;;8.90;1.00;;;;;;5034027;28;20418;-46
2023/02/13 08:56:34;;;;;;;69.53;48.07;;;9.00;1.00;;;;;;5034237;28;20053;-45
2023/02/13 08:59:00;;;;;;;71.43;46.93;;;9.00;1.00;;;;;;5034642;28;20037;-45
2023/02/13 09:01:26;;;;;;;70.63;47.87;;;9.00;1.00;;;;;;5032868;28;20026;-45
2023/02/13 09:03:51;;;;;;;70.80;46.23;;;9.10;1.00;;;;;;5032959;28;20032;-53
2023/02/13 09:06:17;;;;;;;73.60;48.30;;;9.10;1.00;;;;;;5033216;28;20507;-50
2023/02/13 09:08:43;;;;;;;72.37;48.53;;;9.10;1.00;;;;;;5033884;28;20506;-50
2023/02/13 09:11:09;;;;;;;69.83;47.30;;;9.10;1.00;;;;;;5033994;28;20037;-49
2023/02/13 09:13:38;;;;;;;83.50;50.33;;;9.20;1.00;;;;;;5033872;28;20061;-49
2023/02/13 09:16:06;;;;;;;73.10;50.50;;;9.20;1.00;;;;;;5034018;28;20029;-55
2023/02/13 09:18:32;;;;;;;73.80;48.07;;;9.30;1.00;;;;;;5034202;28;20026;-52
2023/02/13 09:21:04;;;;;;;73.23;50.57;;;9.30;1.00;;;;;;5033922;28;20025;-47
2023/02/13 09:23:35;;;;;;;70.37;48.93;;;9.30;1.00;;;;;;5034056;28;20352;-49
2023/02/13 09:26:02;;;;;;;70.43;48.00;;;9.30;1.00;;;;;;5032283;28;20121;-47
2023/02/13 09:28:29;;;;;;;71.03;49.43;;;9.40;1.00;;;;;;5032428;28;20037;-60
2023/02/13 09:30:55;;;;;;;72.60;50.53;;;9.30;1.00;;;;;;5032778;28;20136;-51
2023/02/13 09:33:20;;;;;;;70.30;47.00;;;9.40;1.00;;;;;;5034137;28;20538;-54
2023/02/13 09:35:46;;;;;;;71.30;48.57;;;9.40;1.00;;;;;;5033818;28;20502;-55
2023/02/13 09:38:13;;;;;;;70.23;49.93;;;9.50;1.00;;;;;;5030969;28;20033;-51
2023/02/13 09:40:43;;;;;;;75.17;50.27;;;9.60;1.00;;;;;;5038323;28;20043;-52
2023/02/13 09:43:26;;;;;;;76.63;50.80;;;9.60;1.00;;;;;;5040914;28;20041;-55
2023/02/13 09:45:57;;;;;;;73.60;49.07;;;9.70;1.00;;;;;;5021148;28;20060;-55
2023/02/13 09:48:33;;;;;;;70.87;49.10;;;9.70;1.00;;;;;;5033327;28;20041;-58
2023/02/13 09:50:59;;;;;;;71.43;48.60;;;9.80;1.00;;;;;;5027466;28;20021;-51
2023/02/13 09:53:27;;;;;;;68.30;49.33;;;9.80;1.00;;;;;;5034345;28;20032;-52
2023/02/13 09:56:11;;;;;;;69.10;49.23;;;9.90;1.00;;;;;;5019479;28;20032;-47
2023/02/13 09:58:48;;;;;;;71.17;49.37;;;9.80;1.00;;;;;;5033372;28;20129;-49
2023/02/13 10:01:43;;;;;;;73.77;48.57;;;9.90;1.00;;;;;;5033302;28;20045;-54
2023/02/13 10:04:27;;;;;;;73.25;48.95;;;10.00;1.00;;;;;;5028204;28;20042;-57
2023/02/13 10:07:10;;;;;;;73.13;51.05;;;10.00;1.00;;;;;;5026440;28;20033;-46
2023/02/13 10:09:52;;;;;;;70.63;50.57;;;9.90;1.00;;;;;;5020875;28;20022;-51
2023/02/13 10:12:44;;;;;;;70.47;50.37;;;10.00;1.00;;;;;;5032252;28;20075;-53
2023/02/13 10:15:40;;;;;;;69.33;50.47;;;10.00;1.00;;;;;;5033024;28;20095;-53
2023/02/13 10:18:15;;;;;;;62.87;45.37;;;10.10;1.00;;;;;;5020580;28;20491;-48
2023/02/13 10:20:47;;;;;;;55.80;38.43;;;10.10;1.00;;;;;;5031513;28;20479;-48
2023/02/13 10:23:19;;;;;;;59.80;41.93;;;10.20;1.00;;;;;;5026832;28;20659;-49
2023/02/13 10:25:51;;;;;;;62.37;43.73;;;10.30;1.00;;;;;;5024122;28;20026;-49
2023/02/13 10:28:32;;;;;;;66.73;45.53;;;10.30;1.00;;;;;;5032719;28;20022;-51
2023/02/13 10:31:10;;;;;;;61.50;43.53;;;10.40;1.00;;;;;;5032663;28;20038;-55
2023/02/13 10:33:49;;;;;;;62.17;44.93;;;10.30;1.00;;;;;;5025642;28;20080;-48
2023/02/13 10:36:19;;;;;;;63.47;45.47;;;10.50;1.00;;;;;;5032823;28;20029;-52
2023/02/13 10:39:03;;;;;;;63.77;46.07;;;10.40;1.00;;;;;;5032321;28;20029;-50
2023/02/13 10:41:46;;;;;;;64.73;45.83;;;10.60;1.00;;;;;;5046141;28;20033;-53
2023/02/13 10:44:40;;;;;;;58.83;44.57;;;10.50;1.00;;;;;;5020703;28;20031;-51
2023/02/13 10:47:32;;;;;;;61.03;42.17;;;10.50;1.00;;;;;;5030902;28;20029;-50
2023/02/13 10:50:01;;;;;;;57.17;41.70;;;10.60;1.00;;;;;;5032446;28;20487;-55
2023/02/13 10:52:45;;;;;;;60.97;44.37;;;10.70;1.00;;;;;;5032047;28;20080;-54
2023/02/13 10:55:21;;;;;;;62.53;42.92;;;10.70;1.00;;;;;;5032267;28;20577;-53
2023/02/13 10:58:10;;;;;;;62.30;44.43;;;10.80;1.00;;;;;;5032169;28;20563;-53
2023/02/13 11:01:05;;;;;;;63.70;46.10;;;10.80;1.00;;;;;;5032203;28;20465;-49
2023/02/13 11:03:31;;;;;;;64.00;44.97;;;10.90;1.00;;;;;;5030127;28;20547;-51
2023/02/13 11:06:00;;;;;;;62.77;45.70;;;10.90;1.00;;;;;;5031723;28;20120;-54
2023/02/13 11:08:34;;;;;;;56.80;42.63;;;10.90;1.00;;;;;;5031585;28;20030;-55
2023/02/13 11:11:00;;;;;;;59.22;41.35;;;10.90;1.00;;;;;;5031988;28;20429;-54
2023/02/13 11:13:28;;;;;;;49.87;36.70;;;11.00;1.00;;;;;;5028324;28;20037;-56
2023/02/13 11:16:04;;;;;;;51.05;36.10;;;11.00;1.00;;;;;;5031117;28;20033;-59
2023/02/13 11:18:36;;;;;;;50.28;36.38;;;11.10;1.00;;;;;;5030558;28;20387;-50
2023/02/13 11:21:19;;;;;;;42.83;30.70;;;11.10;1.00;;;;;;5031683;28;20018;-52
2023/02/13 11:23:50;;;;;;;52.10;35.80;;;11.20;1.00;;;;;;5032086;28;20079;-48
2023/02/13 11:26:30;;;;;;;50.17;35.43;;;11.20;1.00;;;;;;5032054;28;20088;-50
2023/02/13 11:29:00;;;;;;;49.63;36.13;;;11.30;1.00;;;;;;5026272;28;20049;-47
2023/02/13 11:31:34;;;;;;;45.10;34.43;;;11.20;1.00;;;;;;5030860;28;20463;-53
2023/02/13 11:34:27;;;;;;;47.13;34.50;;;11.30;1.00;;;;;;5032149;28;20029;-59
2023/02/13 11:37:08;;;;;;;48.10;33.55;;;11.40;1.00;;;;;;5032198;28;20041;-60
2023/02/13 11:39:34;;;;;;;45.53;32.42;;;11.50;1.00;;;;;;5031673;28;20065;-49
2023/02/13 11:42:00;;;;;;;50.20;35.13;;;11.50;1.00;;;;;;5045163;28;20115;-52
2023/02/13 11:44:28;;;;;;;46.47;33.05;;;11.50;1.00;;;;;;5034622;28;20022;-53
2023/02/13 11:46:59;;;;;;;47.05;35.13;;;11.50;1.00;;;;;;5031678;28;20026;-56
2023/02/13 11:49:24;;;;;;;44.67;32.63;;;11.60;1.00;;;;;;5028454;28;20044;-55
2023/02/13 11:51:53;;;;;;;45.47;33.93;;;11.60;1.00;;;;;;5031243;28;20033;-59
2023/02/13 11:54:40;;;;;;;49.55;35.20;;;11.60;1.00;;;;;;5025026;28;20463;-51
2023/02/13 11:57:22;;;;;;;44.33;31.80;;;11.70;1.00;;;;;;5027603;28;20107;-50
2023/02/13 11:59:50;;;;;;;43.85;31.80;;;11.80;1.00;;;;;;5031497;28;20025;-49
2023/02/13 12:02:21;;;;;;;38.85;29.08;;;11.60;1.00;;;;;;5031485;28;20032;-51
2023/02/13 12:05:14;;;;;;;44.45;29.50;;;11.70;1.00;;;;;;5031369;28;20045;-53
2023/02/13 12:07:41;;;;;;;34.35;24.77;;;11.90;1.00;;;;;;5030893;28;20029;-53
2023/02/13 12:10:32;;;;;;;37.40;25.98;;;11.90;1.00;;;;;;5031110;28;20030;-49
2023/02/13 12:13:14;;;;;;;44.60;28.70;;;11.90;1.00;;;;;;5016553;28;20379;-55
2023/02/13 12:15:42;;;;;;;38.95;28.00;;;12.00;1.00;;;;;;5034223;28;20029;-55
2023/02/13 12:18:07;;;;;;;37.67;26.77;;;12.00;1.00;;;;;;5035265;28;20017;-52
2023/02/13 12:21:02;;;;;;;36.35;27.13;;;12.10;1.00;;;;;;5034836;28;20025;-55
2023/02/13 12:24:01;;;;;;;42.17;29.40;;;12.20;1.00;;;;;;5024260;28;20021;-57
2023/02/13 12:26:37;;;;;;;41.22;29.95;;;12.20;1.00;;;;;;5034518;28;20505;-54
2023/02/13 12:29:05;;;;;;;40.65;28.45;;;12.30;1.00;;;;;;5034578;28;20117;-56
2023/02/13 12:31:53;;;;;;;39.08;27.75;;;12.30;1.00;;;;;;5034686;28;20375;-52
2023/02/13 12:34:27;;;;;;;46.03;31.88;;;12.30;1.00;;;;;;5034587;28;20072;-60
2023/02/13 12:37:12;;;;;;;42.20;29.90;;;12.40;1.00;;;;;;5030855;28;20075;-64
2023/02/13 12:39:45;;;;;;;40.28;30.10;;;12.50;1.00;;;;;;5038147;28;20441;-62
2023/02/13 12:42:29;;;;;;;43.38;30.60;;;12.50;1.00;;;;;;5025539;28;20056;-50
2023/02/13 12:45:09;;;;;;;41.72;30.20;;;12.60;1.00;;;;;;5034512;28;20033;-47
2023/02/13 12:48:09;;;;;;;48.90;32.85;;;12.60;1.00;;;;;;5022338;28;20026;-50
2023/02/13 12:50:43;;;;;;;40.50;30.88;;;12.70;1.00;;;;;;5040739;28;20032;-49
2023/02/13 12:53:23;;;;;;;45.30;31.90;;;12.60;1.00;;;;;;5038585;28;20053;-48
2023/02/13 12:56:13;;;;;;;37.83;28.60;;;12.70;1.00;;;;;;5031845;28;20272;-47
2023/02/13 12:59:16;;;;;;;41.67;29.73;;;12.80;1.00;;;;;;5030700;28;20169;-46
2023/02/13 13:02:13;;;;;;;40.22;30.65;;;12.80;1.00;;;;;;5034469;28;20041;-46
2023/02/13 13:04:55;;;;;;;37.78;29.27;;;12.90;1.00;;;;;;5033580;28;20538;-46
2023/02/13 13:07:27;;;;;;;43.88;30.55;;;12.90;1.00;;;;;;5033882;28;20033;-45
2023/02/13 13:10:00;;;;;;;43.88;31.30;;;12.90;1.00;;;;;;5033872;28;20482;-45
2023/02/13 13:12:31;;;;;;;38.22;29.85;;;12.90;1.00;;;;;;5033739;28;20395;-45
2023/02/13 13:15:09;;;;;;;40.67;29.63;;;13.00;1.00;;;;;;5032866;28;20078;-47
2023/02/13 13:17:43;;;;;;;41.70;29.98;;;13.00;1.00;;;;;;5043989;28;20103;-47
2023/02/13 13:20:23;;;;;;;41.95;28.42;;;13.00;1.00;;;;;;5039803;28;20433;-47
2023/02/13 13:23:14;;;;;;;34.13;25.63;;;13.10;1.00;;;;;;5037295;28;20098;-46
2023/02/13 13:26:13;;;;;;;37.85;26.58;;;13.10;1.00;;;;;;5040471;28;20033;-47
2023/02/13 13:28:46;;;;;;;40.35;27.85;;;13.10;1.00;;;;;;5029207;28;20036;-47
2023/02/13 13:31:12;;;;;;;40.08;28.63;;;13.20;1.00;;;;;;5035822;28;20367;-47
2023/02/13 13:33:44;;;;;;;38.10;27.27;;;13.10;1.00;;;;;;5037780;28;20036;-57
2023/02/13 13:36:56;;;;;;;38.95;27.75;;;13.20;1.00;;;;;;5028284;28;20034;-52
2023/02/13 13:39:46;;;;;;;40.28;28.17;;;13.20;1.00;;;;;;5026117;28;20144;-51
2023/02/13 13:42:54;;;;;;;35.67;26.48;;;13.30;1.00;;;;;;5037282;28;20044;-51
2023/02/13 13:45:40;;;;;;;36.22;26.08;;;13.30;1.00;;;;;;5027693;28;20042;-50
2023/02/13 13:48:35;;;;;;;38.15;26.83;;;13.30;1.00;;;;;;5044080;28;20116;-52
2023/02/13 13:51:01;;;;;;;34.00;25.48;;;13.30;1.00;;;;;;5027805;28;20060;-57